« Back
NWS Peachtree City, Ga » Text Product » CSG Terminal Aerodrome Forecast


Printer-friendly Version
Current Version              Previous Versions:   1  2  3  4  5  6  7  8  9  

Terminal Aerodrome Forecast

645
FTUS42 KFFC 261124
TAFCSG
TAF
KCSG 261124Z 2612/2712 24008KT P6SM BKN006
     FM261300 28010KT P6SM BKN012
     FM261600 29012G22KT P6SM BKN045
     FM270200 31006KT P6SM FEW250=

USA.gov is the U.S. government's official web portal to all federal, state and local government web resources and services.